Time;durP1;ratioP1;P1;durP2;ratioP2;P2;SDS_P1;SDS_P2;PMS_P1;PMS_P2;Temp;Humidity;BMP_temperature;BMP_pressure;BME280_temperature;BME280_humidity;BME280_pressure;Samples;Min_cycle;Max_cycle;Signal;HPM_P1;HPM_P2
2023/04/07 00:02:07;;;;;;;0.38;0.38;;;;;;;6.93;100.00;100214.56;4927772;28;20711;-75
2023/04/07 00:04:34;;;;;;;0.20;0.20;;;;;;;6.94;100.00;100218.97;4951186;28;20241;-75
2023/04/07 00:07:02;;;;;;;0.32;0.32;;;;;;;6.90;100.00;100221.50;4951311;28;20244;-75
2023/04/07 00:09:29;;;;;;;0.20;0.20;;;;;;;6.94;100.00;100229.47;4953175;28;20240;-74
2023/04/07 00:11:57;;;;;;;0.20;0.20;;;;;;;6.93;100.00;100225.06;4934095;28;20269;-74
2023/04/07 00:14:24;;;;;;;0.50;0.50;;;;;;;6.93;100.00;100226.81;4950992;28;20625;-74
2023/04/07 00:16:51;;;;;;;0.20;0.20;;;;;;;6.94;100.00;100233.84;4951547;28;20770;-74
2023/04/07 00:19:19;;;;;;;0.68;0.68;;;;;;;6.92;100.00;100230.31;4950415;28;20317;-74
2023/04/07 00:21:46;;;;;;;0.20;0.20;;;;;;;6.95;100.00;100236.50;4951456;28;20320;-74
2023/04/07 00:24:14;;;;;;;0.38;0.38;;;;;;;6.88;100.00;100229.34;4950641;28;20322;-74
2023/04/07 00:26:53;;;;;;;0.20;0.20;;;;;;;6.88;100.00;100229.34;4952087;28;20233;-74
2023/04/07 00:29:20;;;;;;;0.20;0.20;;;;;;;6.82;100.00;100223.97;4933003;28;20320;-74
2023/04/07 00:31:48;;;;;;;0.10;0.10;;;;;;;6.82;100.00;100215.19;4950892;29;20329;-74
2023/04/07 00:34:15;;;;;;;0.20;0.20;;;;;;;6.79;100.00;100202.88;4951131;29;20658;-74
2023/04/07 00:36:42;;;;;;;0.20;0.20;;;;;;;6.79;100.00;100205.50;4932718;29;20249;-74
2023/04/07 00:39:10;;;;;;;0.20;0.20;;;;;;;6.78;100.00;100198.47;4949679;28;20318;-74
2023/04/07 00:41:37;;;;;;;0.20;0.20;;;;;;;6.77;100.00;100193.19;4948904;28;20268;-73
2023/04/07 00:44:04;;;;;;;0.20;0.20;;;;;;;6.77;100.00;100188.81;4946761;28;20249;-73
2023/04/07 00:46:32;;;;;;;0.20;0.20;;;;;;;6.76;100.00;100188.78;4951524;28;20300;-73
2023/04/07 00:48:59;;;;;;;0.20;0.20;;;6.70;99.90;;;6.72;100.00;100180.84;4931125;29;20585;-73
2023/04/07 00:51:27;;;;;;;0.20;0.20;;;;;;;6.68;100.00;100179.00;4930909;29;20237;-74
2023/04/07 00:56:35;;;;;;;0.20;0.20;;;;;;;6.66;100.00;100177.22;4948159;28;20236;-76
2023/04/07 00:59:05;;;;;;;0.15;0.15;;;6.60;99.90;;;6.66;100.00;100161.44;4952865;28;20253;-77
2023/04/07 01:01:47;;;;;;;0.10;0.10;;;6.70;99.90;;;6.61;100.00;100163.09;4943134;28;20249;-76
2023/04/07 01:04:43;;;;;;;0.20;0.20;;;6.60;99.90;;;6.65;100.00;100165.81;4961896;28;20340;-76
2023/04/07 01:07:26;;;;;;;0.15;0.15;;;6.50;99.90;;;6.61;100.00;100158.72;4959684;28;20230;-76
2023/04/07 01:10:05;;;;;;;0.10;0.10;;;5.70;99.90;;;6.57;100.00;100154.25;4951213;28;20237;-75
2023/04/07 01:13:05;;;;;;;0.20;0.20;;;6.50;99.90;;;6.61;100.00;100155.22;4959413;28;20229;-74
2023/04/07 01:15:34;;;;;;;0.10;0.10;;;6.50;99.90;;;6.59;100.00;100156.91;4960958;28;20284;-75
2023/04/07 01:18:12;;;;;;;0.20;0.20;;;6.50;99.90;;;6.61;100.00;100149.94;4943721;28;20229;-75
2023/04/07 01:20:40;;;;;;;0.43;0.43;;;;;;;6.56;100.00;100159.47;4946610;28;20245;-75
2023/04/07 01:23:07;;;;;;;0.40;0.40;;;6.50;99.90;;;6.59;100.00;100157.81;4947286;28;20312;-75
2023/04/07 01:26:19;;;;;;;0.30;0.30;;;6.50;99.90;;;6.58;100.00;100155.16;4949550;28;20241;-74
2023/04/07 01:29:06;;;;;;;0.20;0.20;;;6.50;99.90;;;6.60;100.00;100153.44;4956249;28;20614;-75
2023/04/07 01:31:35;;;;;;;0.20;0.20;;;6.40;99.90;;;6.59;100.00;100160.44;4931405;28;20272;-75
2023/04/07 01:34:03;;;;;;;0.20;0.20;;;6.50;99.90;;;6.60;100.00;100163.94;4954287;28;20649;-74
2023/04/07 01:36:32;;;;;;;0.10;0.10;;;6.50;99.90;;;6.61;100.00;100158.72;4955040;28;20260;-74
2023/04/07 01:39:00;;;;;;;0.20;0.20;;;;;;;6.56;100.00;100159.47;4953946;28;20241;-74
2023/04/07 01:41:29;;;;;;;0.20;0.20;;;6.50;99.90;;;6.58;100.00;100156.03;4951405;28;20319;-74
2023/04/07 01:43:57;;;;;;;0.20;0.20;;;6.50;99.90;;;6.58;100.00;100152.50;4971137;28;20260;-75
2023/04/07 01:46:25;;;;;;;0.10;0.10;;;;;;;6.57;100.00;100153.38;4955767;28;20232;-75
2023/04/07 01:48:53;;;;;;;0.20;0.20;;;;;;;6.57;100.00;100138.50;4970818;28;20260;-75
2023/04/07 01:51:22;;;;;;;0.10;0.10;;;6.50;99.90;;;6.50;100.00;100147.09;4954029;28;20241;-75
2023/04/07 01:53:49;;;;;;;0.20;0.20;;;;;;;6.49;100.00;100147.03;4951696;28;20300;-75
2023/04/07 01:56:16;;;;;;;0.20;0.20;;;;;;;6.51;100.00;100143.63;4999773;23;20251;-76
2023/04/07 01:58:44;;;;;;;0.43;0.43;;;;;;;6.49;100.00;100139.16;4988933;28;20256;-76
2023/04/07 02:01:12;;;;;;;0.10;0.10;;;;;;;6.43;100.00;100138.19;4988357;28;20256;-76
2023/04/07 02:04:06;;;;;;;0.10;0.10;;;6.20;99.90;;;6.31;100.00;100131.78;4995322;28;20236;-76
2023/04/07 02:06:45;;;;;;;0.30;0.30;;;6.20;99.90;;;6.23;100.00;100120.22;5005379;28;20247;-76
2023/04/07 02:09:16;;;;;;;0.20;0.20;;;6.10;99.90;;;6.18;100.00;100122.75;4968030;28;20234;-76
2023/04/07 02:11:45;;;;;;;0.20;0.20;;;6.10;99.90;;;6.12;100.00;100116.50;4972326;28;20307;-74
2023/04/07 02:14:13;;;;;;;0.65;0.40;;;6.00;99.90;;;6.06;100.00;100110.25;4970962;28;20236;-74
2023/04/07 02:16:42;;;;;;;0.20;0.20;;;6.00;99.90;;;6.04;100.00;100104.09;4960428;28;20716;-74
2023/04/07 02:19:09;;;;;;;0.20;0.20;;;;;;;6.02;100.00;100103.16;4969603;28;20260;-75
2023/04/07 02:21:39;;;;;;;0.20;0.20;;;5.90;99.90;;;5.92;100.00;100097.69;4983890;28;20637;-76
2023/04/07 02:24:07;;;;;;;0.20;0.20;;;5.90;99.90;;;5.92;100.00;100100.31;4990728;28;20256;-74
2023/04/07 02:26:35;;;;;;;0.20;0.20;;;5.80;99.90;;;5.77;100.00;100091.22;4991052;28;20744;-74
2023/04/07 02:29:05;;;;;;;0.20;0.20;;;5.60;99.90;;;5.77;100.00;100099.06;4983170;28;20666;-75
2023/04/07 02:31:33;;;;;;;0.20;0.20;;;;;;;5.81;100.00;100092.16;4991446;28;20228;-75
2023/04/07 02:34:00;;;;;;;0.20;0.20;;;;;;;5.84;100.00;100104.47;4992605;28;20316;-74
2023/04/07 02:36:28;;;;;;;0.20;0.20;;;;;;;5.78;100.00;100098.22;4991941;28;20291;-75
2023/04/07 02:38:55;;;;;;;0.30;0.30;;;;;;;5.63;100.00;100089.13;4991612;28;20236;-75
2023/04/07 02:41:23;;;;;;;0.52;0.52;;;;;;;5.64;100.00;100106.63;4991285;28;20232;-74
2023/04/07 02:43:51;;;;;;;0.20;0.20;;;;;;;5.58;100.00;100116.97;4991277;28;20240;-74
2023/04/07 02:46:19;;;;;;;0.32;0.32;;;;;;;5.56;100.00;100113.44;4992247;28;20236;-74
2023/04/07 02:48:46;;;;;;;0.20;0.20;;;;;;;5.54;100.00;100109.88;4991124;28;20332;-74
2023/04/07 02:51:14;;;;;;;0.20;0.20;;;;;;;5.53;100.00;100113.34;4991647;28;20229;-75
2023/04/07 02:53:41;;;;;;;0.20;0.20;;;;;;;5.42;100.00;100111.38;4991040;28;20327;-75
2023/04/07 02:56:08;;;;;;;1.02;1.00;;;5.40;99.90;;;5.42;100.00;100115.72;5009511;23;20269;-77
2023/04/07 02:58:35;;;;;;;0.10;0.10;;;;;;;5.44;100.00;100108.78;5044399;28;20227;-76
2023/04/07 03:01:04;;;;;;;0.20;0.20;;;;;;;5.49;100.00;100106.25;5030997;28;20234;-76
2023/04/07 03:03:31;;;;;;;0.20;0.20;;;;;;;5.38;100.00;100101.66;5044161;28;20349;-76
2023/04/07 03:05:59;;;;;;;0.30;0.30;;;;;;;5.49;100.00;100099.28;5041384;28;20229;-76
2023/04/07 03:08:26;;;;;;;0.25;0.25;;;;;;;5.45;100.00;100098.31;5038268;28;20332;-76
2023/04/07 03:10:54;;;;;;;0.20;0.20;;;;;;;5.53;100.00;100105.50;5045053;28;20254;-75
2023/04/07 03:13:21;;;;;;;0.20;0.20;;;;;;;5.56;100.00;100103.81;5046142;28;20276;-75
2023/04/07 03:15:48;;;;;;;0.20;0.20;;;;;;;5.54;100.00;100105.53;5045097;28;20234;-75
2023/04/07 03:18:16;;;;;;;0.25;0.25;;;;;;;5.56;100.00;100108.19;5043190;28;20306;-74
2023/04/07 03:20:46;;;;;;;0.20;0.20;;;;;;;5.61;100.00;100119.66;5041588;28;20657;-75
2023/04/07 03:23:13;;;;;;;0.30;0.30;;;;;;;5.55;100.00;100112.53;5046027;28;20802;-75
2023/04/07 03:25:41;;;;;;;0.20;0.20;;;;;;;5.56;100.00;100116.06;5051182;28;20809;-75
2023/04/07 03:28:08;;;;;;;0.20;0.20;;;;;;;5.57;100.00;100113.47;5049237;28;20245;-75
2023/04/07 03:30:36;;;;;;;0.20;0.20;;;5.50;99.90;;;5.58;100.00;100122.22;5039042;28;20318;-75
2023/04/07 03:33:04;;;;;;;0.20;0.20;;;;;;;5.60;100.00;100138.88;5047443;28;20238;-75
2023/04/07 03:35:31;;;;;;;0.20;0.20;;;;;;;5.63;100.00;100146.81;5054165;28;20237;-75
2023/04/07 03:37:58;;;;;;;0.20;0.20;;;5.50;99.90;;;5.63;100.00;100152.06;5029317;28;20265;-75
2023/04/07 03:40:26;;;;;;;0.20;0.20;;;;;;;5.70;100.00;100156.63;5047674;28;20250;-74
2023/04/07 03:42:53;;;;;;;0.20;0.20;;;5.60;99.90;;;5.68;100.00;100167.06;5018251;28;20230;-74
2023/04/07 03:45:20;;;;;;;0.20;0.20;;;;;;;5.70;100.00;100167.09;5038850;28;20826;-75
2023/04/07 03:47:47;;;;;;;0.20;0.20;;;;;;;5.71;100.00;100172.41;5041086;28;20257;-74
2023/04/07 03:50:15;;;;;;;0.20;0.20;;;;;;;5.74;100.00;100179.44;5040303;28;20234;-75
2023/04/07 03:52:42;;;;;;;0.95;0.55;;;;;;;5.75;100.00;100181.22;5046471;28;20231;-75
2023/04/07 03:55:09;;;;;;;0.20;0.20;;;;;;;5.71;100.00;100177.66;5053319;23;20348;-75
2023/04/07 03:57:37;;;;;;;0.30;0.30;;;;;;;5.75;100.00;100191.72;5006542;28;20254;-76
2023/04/07 04:00:06;;;;;;;0.65;0.65;;;5.70;99.90;;;5.72;100.00;100192.53;5007277;28;20255;-76
2023/04/07 04:02:34;;;;;;;0.40;0.40;;;;;;;5.65;100.00;100189.72;5003004;28;20231;-76
2023/04/07 04:05:02;;;;;;;0.10;0.10;;;;;;;5.65;100.00;100190.59;5005483;28;20239;-77
2023/04/07 04:07:30;;;;;;;0.40;0.40;;;;;;;5.67;100.00;100190.66;5000742;28;20472;-77
2023/04/07 04:09:57;;;;;;;0.85;0.85;;;;;;;5.69;100.00;100202.94;4998683;28;20236;-75
2023/04/07 04:12:55;;;;;;;0.10;0.10;;;5.70;99.90;;;5.72;100.00;100200.41;5004148;28;20281;-77
2023/04/07 04:15:23;;;;;;;0.20;0.20;;;;;;;5.70;100.00;100217.84;5003952;28;20278;-77
2023/04/07 04:17:53;;;;;;;0.10;0.10;;;5.70;99.90;;;5.70;100.00;100223.09;5009683;28;20250;-76
2023/04/07 04:20:23;;;;;;;0.20;0.20;;;;;;;5.74;100.00;100224.06;5001974;28;20235;-77
2023/04/07 04:22:50;;;;;;;0.20;0.20;;;;;;;5.76;100.00;100235.47;5006898;28;20248;-77
2023/04/07 04:25:18;;;;;;;0.20;0.20;;;;;;;5.74;100.00;100234.56;5009233;28;20239;-75
2023/04/07 04:27:46;;;;;;;0.20;0.20;;;;;;;5.71;100.00;100235.38;5013752;28;20259;-75
2023/04/07 04:30:13;;;;;;;0.10;0.10;;;;;;;5.76;100.00;100241.63;5012100;28;20219;-76
2023/04/07 04:32:41;;;;;;;0.28;0.28;;;;;;;5.76;100.00;100251.22;5005261;28;20293;-76
2023/04/07 04:35:08;;;;;;;0.20;0.20;;;;;;;5.73;100.00;100259.00;5007645;28;20736;-76
2023/04/07 04:37:36;;;;;;;0.40;0.40;;;;;;;5.68;100.00;100263.25;5008358;28;20232;-75
2023/04/07 04:40:07;;;;;;;0.10;0.10;;;;;;;5.69;100.00;100273.78;5014904;28;20267;-76
2023/04/07 04:42:35;;;;;;;0.20;0.20;;;;;;;5.72;100.00;100288.72;5003466;28;20239;-77
2023/04/07 04:45:02;;;;;;;0.20;0.20;;;;;;;5.75;100.00;100294.06;5000984;28;20263;-75
2023/04/07 04:47:30;;;;;;;0.75;0.75;;;;;;;5.73;100.00;100301.88;5003894;28;20676;-76
2023/04/07 04:49:58;;;;;;;0.20;0.20;;;;;;;5.73;100.00;100301.88;4991724;28;20236;-76
2023/04/07 04:52:26;;;;;;;0.20;0.20;;;;;;;5.75;100.00;100310.69;5012720;28;20231;-76
2023/04/07 04:54:55;;;;;;;0.65;0.65;;;;;;;5.73;100.00;100317.63;5020746;23;20238;-76
2023/04/07 04:57:22;;;;;;;0.20;0.20;;;;;;;5.70;100.00;100314.91;5018967;28;20262;-75
2023/04/07 04:59:50;;;;;;;0.40;0.40;;;;;;;5.72;100.00;100315.84;5020057;28;20270;-76
2023/04/07 05:02:17;;;;;;;0.20;0.20;;;;;;;5.73;100.00;100319.34;5029738;28;20304;-76
2023/04/07 05:04:45;;;;;;;0.17;0.17;;;;;;;5.71;100.00;100323.69;5026182;28;20318;-77
2023/04/07 05:07:15;;;;;;;0.20;0.20;;;5.70;99.90;;;5.75;100.00;100330.78;5026300;28;20231;-77
2023/04/07 05:12:30;;;;;;;0.20;0.20;;;;;;;5.73;100.00;100329.84;4957147;28;20463;-75
2023/04/07 05:14:57;;;;;;;0.20;0.20;;;;;;;5.75;100.00;100338.66;4980840;28;20303;-75
2023/04/07 05:17:24;;;;;;;0.73;0.73;;;5.70;99.90;;;5.77;100.00;100339.59;4960443;28;20255;-75
2023/04/07 05:19:52;;;;;;;0.20;0.20;;;;;;;5.80;100.00;100358.03;4966127;28;20315;-75
2023/04/07 05:22:20;;;;;;;1.38;1.38;;;;;;;5.76;100.00;100362.31;4984941;28;20244;-75
2023/04/07 05:24:47;;;;;;;0.70;0.60;;;;;;;5.78;100.00;100372.84;4970249;28;20272;-74
2023/04/07 05:27:15;;;;;;;0.10;0.10;;;;;;;5.77;100.00;100371.06;4990038;28;20250;-74
2023/04/07 05:29:42;;;;;;;0.20;0.20;;;;;;;5.79;100.00;100379.88;4983003;28;20240;-74
2023/04/07 05:32:10;;;;;;;0.93;0.93;;;;;;;5.75;100.00;100378.00;4990177;28;20244;-74
2023/04/07 05:34:37;;;;;;;0.20;0.20;;;;;;;5.77;100.00;100387.72;4991262;28;20241;-74
2023/04/07 05:37:05;;;;;;;0.10;0.10;;;;;;;5.73;100.00;100395.44;4983809;28;20315;-75
2023/04/07 05:39:32;;;;;;;0.20;0.20;;;;;;;5.68;100.00;100403.19;4991427;28;20243;-75
2023/04/07 05:42:01;;;;;;;0.20;0.20;;;;;;;5.68;100.00;100400.56;4983219;28;20335;-76
2023/04/07 05:44:28;;;;;;;0.30;0.30;;;5.70;99.90;;;5.66;100.00;100418.00;4989863;28;20240;-74
2023/04/07 05:46:55;;;;;;;0.20;0.20;;;;;;;5.73;100.00;100426.94;4990578;28;20311;-74
2023/04/07 05:49:22;;;;;;;0.17;0.17;;;;;;;5.77;100.00;100437.56;4986192;28;20260;-74
2023/04/07 05:51:50;;;;;;;0.20;0.20;;;;;;;5.84;100.00;100449.13;4982675;28;20272;-74
2023/04/07 05:54:17;;;;;;;0.10;0.10;;;;;;;5.91;100.00;100463.34;4992046;28;20228;-74
2023/04/07 05:56:45;;;;;;;0.80;0.80;;;;;;;5.92;100.00;100467.75;4982421;28;20240;-74
2023/04/07 05:59:12;;;;;;;0.68;0.68;;;;;;;5.97;100.00;100474.91;4989466;28;20304;-74
2023/04/07 06:01:40;;;;;;;0.20;0.20;;;;;;;6.05;100.00;100480.34;4983013;28;20727;-74
2023/04/07 06:04:08;;;;;;;0.20;0.20;;;;;;;6.13;100.00;100504.19;4986179;28;20251;-74
2023/04/07 06:06:35;;;;;;;0.20;0.20;;;;;;;6.12;100.00;100492.81;4990491;28;20322;-74
2023/04/07 06:09:03;;;;;;;0.10;0.10;;;;;;;6.09;100.00;100493.63;4987854;28;20256;-75
2023/04/07 06:11:33;;;;;;;0.10;0.10;;;;;;;6.11;100.00;100498.91;4988724;28;20407;-75
2023/04/07 06:14:00;;;;;;;0.20;0.20;;;;;;;6.16;100.00;100499.03;5004177;28;20295;-75
2023/04/07 06:16:27;;;;;;;0.15;0.15;;;;;;;6.15;100.00;100497.25;4987912;28;20267;-76
2023/04/07 06:18:55;;;;;;;0.10;0.10;;;;;;;6.19;100.00;100507.88;4983379;28;20247;-74
2023/04/07 06:21:24;;;;;;;0.10;0.10;;;;;;;6.18;100.00;100508.72;4987093;28;20236;-75
2023/04/07 06:23:51;;;;;;;0.20;0.20;;;;;;;6.25;100.00;100522.94;4986953;28;20233;-74
2023/04/07 06:26:20;;;;;;;0.10;0.10;;;;;;;6.30;100.00;100524.84;4988893;28;20315;-74
2023/04/07 06:28:47;;;;;;;0.30;0.30;;;;;;;6.36;100.00;100529.38;4988607;28;20331;-74
2023/04/07 06:31:15;;;;;;;0.20;0.20;;;;;;;6.45;100.00;100539.22;4988596;28;20232;-74
2023/04/07 06:33:43;;;;;;;0.10;0.10;;;;;;;6.59;100.00;100546.66;4989306;28;20275;-75
2023/04/07 06:36:13;;;;;;;0.10;0.10;;;6.70;99.90;;;6.69;100.00;100553.06;4989716;28;20236;-75
2023/04/07 06:38:40;;;;;;;0.10;0.10;;;;;;;6.74;100.00;100554.94;4996361;28;20327;-75
2023/04/07 06:41:11;;;;;;;0.10;0.10;;;;;;;6.83;100.00;100561.31;4999742;28;20375;-74
2023/04/07 06:43:39;;;;;;;0.20;0.20;;;;;;;7.02;100.00;100567.06;4984662;28;20365;-75
2023/04/07 06:46:07;;;;;;;0.20;0.20;;;;;;;7.14;100.00;100578.75;4989142;28;20255;-75
2023/04/07 06:48:35;;;;;;;0.20;0.20;;;;;;;7.20;100.00;100582.41;4990130;28;20241;-76
2023/04/07 06:51:02;;;;;;;0.10;0.10;;;;;;;7.30;100.00;100589.69;4982847;28;20263;-75
2023/04/07 06:53:30;;;;;;;0.20;0.20;;;;;;;7.36;100.00;100592.47;4979143;28;20237;-75
2023/04/07 06:56:05;;;;;;;0.20;0.20;;;7.30;99.90;;;7.43;100.00;100598.75;4989174;28;20309;-75
2023/04/07 06:58:34;;;;;;;0.10;0.10;;;7.40;99.90;;;7.56;100.00;100595.56;4995229;28;20224;-75
2023/04/07 07:01:04;;;;;;;0.20;0.20;;;;;;;7.64;100.00;100608.91;4983040;28;20240;-75
2023/04/07 07:03:31;;;;;;;0.20;0.20;;;;;;;7.94;100.00;100633.34;4985943;28;20240;-75
2023/04/07 07:05:59;;;;;;;0.20;0.20;;;;;;;7.95;100.00;100637.75;4988242;28;20242;-75
2023/04/07 07:08:28;;;;;;;0.25;0.25;;;7.90;99.90;;;8.03;100.00;100653.72;5009482;28;20830;-75
2023/04/07 07:10:56;;;;;;;0.20;0.20;;;;;;;8.30;100.00;100662.25;4982961;28;20237;-75
2023/04/07 07:13:25;;;;;;;0.20;0.20;;;8.20;99.90;;;8.39;100.00;100660.69;4967525;28;20261;-75
2023/04/07 07:15:53;;;;;;;0.10;0.10;;;;;;;8.35;100.00;100657.09;4969736;28;20229;-76
2023/04/07 07:18:20;;;;;;;0.20;0.20;;;;;;;8.44;100.00;100643.25;4963082;28;20383;-75
2023/04/07 07:20:47;;;;;;;0.20;0.20;;;;;;;8.49;100.00;100633.69;4970252;28;20232;-75
2023/04/07 07:23:15;;;;;;;0.20;0.20;;;;;;;8.59;100.00;100633.91;4963592;28;20281;-75
2023/04/07 07:25:42;;;;;;;0.13;0.13;;;;;;;8.87;100.00;100619.50;4960606;28;20241;-75
2023/04/07 07:28:09;;;;;;;0.10;0.10;;;8.60;99.90;;;8.78;100.00;100603.50;4953133;28;20333;-76
2023/04/07 07:30:40;;;;;;;0.10;0.10;;;8.60;99.90;;;8.74;100.00;100579.69;4963535;28;20257;-76
2023/04/07 07:33:07;;;;;;;0.20;0.20;;;;;;;8.90;100.00;100587.91;4965585;28;20241;-76
2023/04/07 07:35:36;;;;;;;0.10;0.10;;;;;;;9.06;100.00;100589.06;4954354;28;20244;-76
2023/04/07 07:38:04;;;;;;;0.10;0.10;;;;;;;9.32;100.00;100584.25;4970068;28;20237;-76
2023/04/07 07:40:32;;;;;;;0.73;0.73;;;;;;;9.36;100.00;100567.63;4969751;28;20245;-75
2023/04/07 07:42:59;;;;;;;0.10;0.10;;;9.20;99.90;;;9.35;100.00;100554.41;4961714;28;20308;-76
2023/04/07 07:45:27;;;;;;;0.30;0.30;;;;;;;9.61;100.00;100567.13;4966811;28;20244;-76
2023/04/07 07:47:54;;;;;;;0.10;0.10;;;;;;;9.69;100.00;100547.88;4963915;28;20295;-76
2023/04/07 07:50:22;;;;;;;0.10;0.10;;;;;;;9.85;100.00;100540.19;4944947;28;20237;-76
2023/04/07 07:52:50;;;;;;;0.20;0.20;;;;;;;9.95;100.00;100512.13;4951510;28;20246;-76
2023/04/07 07:55:17;;;;;;;0.10;0.10;;;;;;;9.98;100.00;100508.63;4951986;28;20238;-76
2023/04/07 07:57:45;;;;;;;0.10;0.10;;;;;;;10.03;100.00;100507.81;4951244;28;20230;-75
2023/04/07 08:00:13;;;;;;;0.52;0.52;;;8.80;99.90;;;10.11;100.00;100492.06;4959803;28;20320;-76
2023/04/07 08:02:40;;;;;;;0.10;0.10;;;;;;;10.26;100.00;100481.69;4964001;28;20315;-76
2023/04/07 08:05:08;;;;;;;0.10;0.10;;;10.40;99.90;;;10.41;100.00;100468.69;4962658;28;20240;-76
2023/04/07 08:07:36;;;;;;;0.10;0.10;;;;;;;10.32;100.00;100446.50;4963716;28;20237;-76
2023/04/07 08:10:04;;;;;;;0.20;0.20;;;;;;;10.35;100.00;100431.56;4941849;28;20237;-76
2023/04/07 08:12:31;;;;;;;0.10;0.10;;;;;;;10.57;100.00;100430.94;4973164;28;20240;-75
2023/04/07 08:14:59;;;;;;;0.10;0.10;;;;;;;10.75;100.00;100424.91;4985641;28;20319;-76
2023/04/07 08:17:26;;;;;;;0.10;0.10;;;;;;;10.88;100.00;100420.59;4985124;28;20290;-76
2023/04/07 08:19:54;;;;;;;0.10;0.10;;;;;;;10.97;100.00;100419.78;5002109;28;20274;-76
2023/04/07 08:22:21;;;;;;;0.10;0.10;;;;;;;11.01;100.00;100411.88;4986211;28;20232;-76
2023/04/07 08:24:49;;;;;;;0.10;0.10;;;;;;;10.72;100.00;100382.56;4983625;28;20317;-77
2023/04/07 08:27:17;;;;;;;0.10;0.10;;;;;;;10.80;100.00;100403.78;4977839;28;20241;-76
2023/04/07 08:29:44;;;;;;;0.30;0.30;;;;;;;10.91;100.00;100404.75;4976263;28;20267;-76
2023/04/07 08:32:12;;;;;;;0.10;0.10;;;;;;;10.98;100.00;100388.03;4981493;28;20248;-76
2023/04/07 08:34:39;;;;;;;1.25;0.88;;;;;;;11.16;100.00;100387.28;4973162;28;20627;-76
2023/04/07 08:37:08;;;;;;;0.10;0.10;;;;;;;10.94;100.00;100357.16;4992294;28;20236;-76
2023/04/07 08:39:35;;;;;;;0.10;0.10;;;;;;;11.23;100.00;100384.66;4992610;28;20228;-76
2023/04/07 08:42:03;;;;;;;0.20;0.20;;;;;;;11.66;100.00;100398.09;4971135;28;20236;-76
2023/04/07 08:44:30;;;;;;;0.10;0.10;;;;;;;11.38;100.00;100353.84;4999105;28;20340;-76
2023/04/07 08:47:00;;;;;;;0.10;0.10;;;11.50;99.90;;;11.62;100.00;100361.00;4996428;28;20252;-76
2023/04/07 08:49:28;;;;;;;0.10;0.10;;;;;;;11.66;100.00;100353.06;4986510;28;20240;-76
2023/04/07 08:51:56;;;;;;;0.10;0.10;;;;;;;11.99;100.00;100357.66;4999061;28;20247;-76
2023/04/07 08:54:23;;;;;;;0.10;0.10;;;;;;;12.15;100.00;100314.38;4991010;28;20323;-76
2023/04/07 08:56:51;;;;;;;0.10;0.10;;;;;;;12.21;100.00;100302.00;4996561;28;20232;-76
2023/04/07 08:59:24;;;;;;;0.10;0.10;;;;;;;12.44;100.00;100281.66;4985700;28;20648;-76
2023/04/07 09:01:51;;;;;;;0.10;0.10;;;;;;;12.42;100.00;100233.94;4985696;28;20286;-76
2023/04/07 09:04:19;;;;;;;0.63;0.63;;;;;;;12.76;100.00;100239.16;4988898;28;20237;-75
2023/04/07 09:06:46;;;;;;;0.13;0.13;;;;;;;12.62;100.00;100211.78;4998930;28;20264;-76
2023/04/07 09:09:14;;;;;;;0.10;0.10;;;;;;;12.92;100.00;100253.25;4982200;28;20303;-76
2023/04/07 09:11:42;;;;;;;0.10;0.10;;;;;;;12.84;100.00;100232.06;4988611;28;20246;-76
2023/04/07 09:14:09;;;;;;;0.10;0.10;;;;;;;12.77;100.00;100227.66;4993687;28;20263;-76
2023/04/07 09:16:37;;;;;;;0.10;0.10;;;;;;;13.20;100.00;100240.81;4987825;28;20246;-77
2023/04/07 09:19:06;;;;;;;0.00;0.00;;;;;;;12.85;100.00;100209.03;4983997;28;20660;-77
2023/04/07 09:21:51;;;;;;;0.30;0.30;;;13.20;99.90;;;12.94;100.00;100211.66;5005466;28;20327;-77
2023/04/07 09:24:27;;;;;;;0.00;0.00;;;13.20;99.90;;;12.86;100.00;100171.88;4988318;28;20247;-77
2023/04/07 09:27:17;;;;;;;0.30;0.30;;;12.90;99.90;;;12.82;100.00;100181.63;4988586;28;20311;-77
2023/04/07 09:29:47;;;;;;;0.10;0.10;;;12.70;99.90;;;12.47;100.00;100144.63;5005486;28;20242;-77
2023/04/07 09:32:38;;;;;;;0.10;0.10;;;12.50;99.90;;;12.45;100.00;100148.16;4986739;28;20232;-77
2023/04/07 09:35:05;;;;;;;0.08;0.08;;;12.60;99.90;;;12.40;100.00;100187.09;5004084;28;20252;-79
2023/04/07 09:37:33;;;;;;;0.00;0.00;;;;;;;12.18;100.00;100188.91;4991943;28;20249;-77
2023/04/07 09:40:00;;;;;;;0.10;0.10;;;;;;;11.97;100.00;100186.25;5005317;28;20641;-77
2023/04/07 09:42:31;;;;;;;0.10;0.10;;;;;;;11.85;100.00;100179.22;4986691;28;20291;-75
2023/04/07 09:45:00;;;;;;;0.47;0.47;;;11.80;99.90;;;11.81;100.00;100228.66;4997419;28;20240;-75
2023/04/07 09:47:30;;;;;;;0.30;0.30;;;11.70;99.90;;;11.61;100.00;100240.06;4996962;28;20241;-75
2023/04/07 09:50:05;;;;;;;0.10;0.10;;;;;;;11.53;100.00;100254.16;4976085;28;20237;-75
2023/04/07 09:52:58;;;;;;;0.10;0.10;;;11.50;99.90;;;11.54;100.00;100269.16;4980303;28;20306;-75
2023/04/07 09:55:26;;;;;;;0.10;0.10;;;;;;;11.54;100.00;100273.59;4977480;28;20248;-76
2023/04/07 09:57:55;;;;;;;0.10;0.10;;;;;;;11.55;100.00;100294.78;5004591;28;20279;-76
2023/04/07 10:00:23;;;;;;;0.05;0.05;;;11.70;99.90;;;11.90;100.00;100343.50;4984224;28;20296;-76
2023/04/07 10:02:51;;;;;;;0.10;0.10;;;;;;;11.79;100.00;100331.09;4986205;28;20228;-75
2023/04/07 10:05:22;;;;;;;0.10;0.10;;;;;;;11.65;100.00;100342.47;4983462;28;20240;-74
2023/04/07 10:07:50;;;;;;;0.10;0.10;;;;;;;11.29;100.00;100337.94;4986558;28;20236;-75
2023/04/07 10:10:17;;;;;;;0.10;0.10;;;;;;;11.23;100.00;100358.19;4989227;28;20236;-75
2023/04/07 10:12:45;;;;;;;0.10;0.10;;;;;;;11.14;100.00;100358.16;4985732;28;20252;-74
2023/04/07 10:15:14;;;;;;;0.10;0.10;;;;;;;11.26;100.00;100367.91;5002874;28;20234;-76
2023/04/07 10:17:47;;;;;;;0.38;0.38;;;11.10;99.90;;;11.22;100.00;100367.00;4998294;28;20244;-76
2023/04/07 10:20:19;;;;;;;0.10;0.10;;;11.10;99.90;;;11.15;100.00;100357.28;4977657;28;20760;-76
2023/04/07 10:22:50;;;;;;;0.10;0.10;;;11.10;99.90;;;11.11;100.00;100358.13;4984668;28;20251;-76
2023/04/07 10:25:20;;;;;;;0.10;0.10;;;11.10;99.90;;;11.28;100.00;100352.94;4980617;28;20775;-76
2023/04/07 10:28:05;;;;;;;0.52;0.30;;;11.00;99.90;;;11.21;100.00;100351.13;4995762;28;20228;-76
2023/04/07 10:30:33;;;;;;;0.10;0.10;;;11.30;99.90;;;11.45;100.00;100376.84;4997333;28;20787;-76
2023/04/07 10:33:01;;;;;;;0.10;0.10;;;;;;;11.22;100.00;100337.00;4982717;28;20268;-76
2023/04/07 10:35:29;;;;;;;0.10;0.10;;;;;;;11.31;100.00;100326.47;5001235;28;20233;-76
2023/04/07 10:38:12;;;;;;;0.10;0.10;;;11.30;99.90;;;11.53;100.00;100344.22;4986958;28;20233;-76
2023/04/07 10:40:42;;;;;;;0.10;0.10;;;10.90;99.90;;;11.04;100.00;100299.88;4989541;28;20267;-76
2023/04/07 10:43:13;;;;;;;0.10;0.10;;;10.90;99.90;;;11.13;100.00;100302.56;4980682;28;20767;-75
2023/04/07 10:45:58;;;;;;;0.10;0.10;;;11.10;99.90;;;11.35;100.00;100335.31;4984222;28;20240;-76
2023/04/07 10:48:27;;;;;;;0.10;0.10;;;;;;;11.18;100.00;100308.75;4984172;28;20229;-75
2023/04/07 10:51:14;;;;;;;0.10;0.10;;;11.10;99.90;;;11.33;100.00;100323.81;4983736;28;20236;-76
2023/04/07 10:54:19;;;;;;;0.10;0.10;;;11.20;99.90;;;11.21;100.00;100300.84;4985900;28;20232;-75
2023/04/07 10:57:09;;;;;;;0.20;0.20;;;11.10;99.90;;;11.43;100.00;100330.91;4983350;28;20240;-75
2023/04/07 10:59:39;;;;;;;0.10;0.10;;;11.40;99.90;;;11.64;100.00;100338.06;4980522;28;20228;-74
2023/04/07 11:02:16;;;;;;;0.10;0.10;;;11.50;99.90;;;11.89;100.00;100366.47;4970648;28;20240;-74
2023/04/07 11:04:45;;;;;;;0.35;0.35;;;11.70;99.90;;;12.01;100.00;100369.13;4987136;28;20351;-74
2023/04/07 11:07:15;;;;;;;0.68;0.68;;;11.70;99.90;;;11.80;100.00;100364.66;4980229;28;20237;-74
2023/04/07 11:09:42;;;;;;;0.10;0.10;;;;;;;12.23;100.00;100388.63;4988255;28;20256;-76
2023/04/07 11:12:23;;;;;;;0.10;0.10;;;12.10;99.90;;;12.21;100.00;100349.72;4980063;28;20232;-77
2023/04/07 11:14:58;;;;;;;0.10;0.10;;;12.20;99.90;;;12.62;100.00;100378.91;4982745;28;20247;-77
2023/04/07 11:17:27;;;;;;;0.10;0.10;;;;;;;12.17;100.00;100327.63;4983545;28;20256;-75
2023/04/07 11:19:55;;;;;;;0.10;0.10;;;;;;;12.92;100.00;100360.31;4985224;28;20228;-75